Terminal Aerodrome Forecast
Issued by NWS Cleveland, OH

Home | Current Version | Previous Version | Graphics & Text | Print | Product List | Glossary On
Versions: 1 2 3 4 5 6 7 8 9 10 11 12 13 14 15 16 17 18 19 20
000
FTUS41 KCLE 221300 AAA
TAFERI
TAF AMD
KERI 221358Z 2214/2312 VRB04KT P6SM VCSH SCT015 BKN035
      TEMPO 2214/2216 BKN015
     FM221600 VRB04KT P6SM SCT025 BKN035
     FM230800 11004KT 2SM BR SCT008 OVC015=

USA.gov is the U.S. government's official web portal to all federal, state and local government web resources and services.